Time;durP1;ratioP1;P1;durP2;ratioP2;P2;SDS_P1;SDS_P2;PMS_P1;PMS_P2;Temp;Humidity;BMP_temperature;BMP_pressure;BME280_temperature;BME280_humidity;BME280_pressure;Samples;Min_cycle;Max_cycle;Signal;HPM_P1;HPM_P2
2024/01/01 00:00:13;;;;;;;78.57;70.60;;;;;;;3.60;74.26;94963.41;5036833;28;20190;-71
2024/01/01 00:02:40;;;;;;;71.65;64.03;;;;;;;3.56;74.75;94954.22;5037542;28;20225;-71
2024/01/01 00:05:07;;;;;;;72.50;65.00;;;;;;;3.49;74.92;94953.06;5036522;28;20274;-71
2024/01/01 00:07:34;;;;;;;63.88;57.45;;;;;;;3.38;74.75;94955.25;5036500;28;20233;-71
2024/01/01 00:10:04;;;;;;;64.38;57.60;;;;;;;3.49;75.25;94944.88;5037561;28;20216;-71
2024/01/01 00:12:32;;;;;;;64.50;57.65;;;;;;;3.53;75.10;94943.94;5037141;28;20254;-71
2024/01/01 00:15:05;;;;;;;64.95;58.03;;;;;;;3.54;75.45;94945.53;5037064;28;20197;-71
2024/01/01 00:17:32;;;;;;;64.28;57.25;;;;;;;3.57;74.84;94952.31;5037393;28;20201;-71
2024/01/01 00:19:59;;;;;;;54.05;48.78;;;;;;;3.53;75.01;94960.31;5036672;28;20182;-71
2024/01/01 00:22:29;;;;;;;58.03;52.00;;;;;;;3.47;74.56;94975.16;5037181;28;20241;-71
2024/01/01 00:24:59;;;;;;;49.70;44.72;;;;;;;3.50;75.08;94963.66;5036704;27;20212;-71
2024/01/01 00:27:28;;;;;;;46.83;42.15;;;;;;;3.56;75.54;94961.63;5036048;28;20208;-71
2024/01/01 00:29:56;;;;;;;62.42;52.03;;;;;;;3.49;75.04;94977.59;5036792;28;20630;-71
2024/01/01 00:32:23;;;;;;;57.05;51.05;;;;;;;3.44;75.25;94961.34;5036817;28;20219;-71
2024/01/01 00:34:51;;;;;;;57.85;52.08;;;;;;;3.35;74.38;94962.09;5036493;28;20197;-71
2024/01/01 00:37:20;;;;;;;57.17;51.20;;;;;;;3.20;74.41;94969.84;5036828;28;20246;-71
2024/01/01 00:39:50;;;;;;;52.80;47.70;;;;;;;3.19;75.28;94968.22;5036379;28;20330;-71
2024/01/01 00:42:17;;;;;;;49.17;44.38;;;;;;;3.18;75.29;94972.88;5036884;28;20198;-71
2024/01/01 00:44:51;;;;;;;56.10;50.13;;;;;;;3.14;75.14;94963.69;5036603;28;20197;-71
2024/01/01 00:47:21;;;;;;;60.38;54.20;;;;;;;3.22;76.04;94957.50;5036279;28;20205;-71
2024/01/01 00:49:52;;;;;;;52.42;47.13;;;;;;;3.24;75.60;94959.94;5035973;28;20206;-71
2024/01/01 00:52:23;;;;;;;51.30;45.88;;;;;;;3.24;76.05;94966.19;5036298;28;20214;-71
2024/01/01 00:54:52;;;;;;;56.88;51.05;;;;;;;3.26;75.93;94963.16;5035989;28;20674;-71
2024/01/01 00:57:21;;;;;;;54.33;48.72;;;;;;;3.16;75.60;94969.66;5035963;28;20220;-71
2024/01/01 00:59:52;;;;;;;51.00;45.95;;;;;;;3.06;75.69;94962.53;5036353;28;20216;-71
2024/01/01 01:02:20;;;;;;;54.10;48.70;;;;;;;3.01;75.47;94957.16;5036070;28;20265;-70
2024/01/01 01:04:51;;;;;;;54.05;48.65;;;;;;;2.99;75.94;94961.34;5035545;28;20202;-70
2024/01/01 01:07:19;;;;;;;55.60;49.95;;;;;;;3.04;75.96;94959.28;5034020;28;20320;-70
2024/01/01 01:09:48;;;;;;;56.33;50.75;;;;;;;3.13;76.58;94952.00;5036104;28;20229;-70
2024/01/01 01:12:16;;;;;;;56.72;50.97;;;;;;;3.20;76.58;94948.84;5036035;28;20205;-70
2024/01/01 01:14:44;;;;;;;52.33;46.97;;;;;;;3.24;76.64;94943.59;5035952;28;20190;-70
2024/01/01 01:17:13;;;;;;;50.97;45.75;;;;;;;3.27;76.38;94935.59;5034648;28;20760;-70
2024/01/01 01:19:41;;;;;;;50.00;45.15;;;;;;;3.24;75.69;94944.38;5035611;28;20598;-70
2024/01/01 01:22:08;;;;;;;45.83;41.33;;;;;;;3.03;75.21;94926.91;5036116;28;20194;-70
2024/01/01 01:24:36;;;;;;;46.78;42.22;;;;;;;2.92;75.41;94933.72;5035211;28;20214;-70
2024/01/01 01:27:04;;;;;;;46.85;42.33;;;;;;;2.94;75.43;94932.28;5036060;28;20201;-69
2024/01/01 01:29:32;;;;;;;48.00;43.38;;;;;;;2.99;75.96;94934.88;5035297;28;20198;-69
2024/01/01 01:31:59;;;;;;;50.58;45.50;;;;;;;3.08;76.20;94935.75;5034915;28;20235;-69
2024/01/01 01:34:30;;;;;;;50.30;45.40;;;;;;;3.10;76.46;94936.25;5035648;28;20189;-69
2024/01/01 01:37:00;;;;;;;49.83;44.90;;;;;;;3.08;76.18;94930.28;5035128;28;20205;-70
2024/01/01 01:39:26;;;;;;;49.30;44.40;;;;;;;3.05;75.49;94933.66;5035792;28;20198;-70
2024/01/01 01:41:56;;;;;;;49.03;44.08;;;;;;;3.05;76.05;94930.09;5035046;28;20201;-70
2024/01/01 01:44:24;;;;;;;47.90;43.30;;;;;;;2.96;75.53;94927.31;5035278;28;20304;-70
2024/01/01 01:46:51;;;;;;;47.55;42.88;;;;;;;2.95;75.53;94925.72;5035330;28;20254;-70
2024/01/01 01:49:20;;;;;;;48.40;43.55;;;;;;;2.95;75.74;94920.28;5052680;28;20215;-70
2024/01/01 01:51:51;;;;;;;46.15;41.70;;;;;;;2.97;75.80;94919.94;5035234;28;20197;-70
2024/01/01 01:54:19;;;;;;;46.75;42.20;;;;;;;3.00;76.13;94922.06;5035906;28;20235;-70
2024/01/01 01:56:46;;;;;;;45.22;41.03;;;;;;;3.02;76.47;94930.75;5034935;28;20539;-70
2024/01/01 01:59:13;;;;;;;42.10;38.00;;;;;;;3.05;76.69;94924.66;5018625;28;20201;-70
2024/01/01 02:01:41;;;;;;;46.42;42.03;;;;;;;3.03;76.35;94926.91;5035316;28;20201;-70
2024/01/01 02:04:11;;;;;;;44.63;40.33;;;;;;;3.01;76.48;94934.56;5035464;28;20593;-70
2024/01/01 02:06:40;;;;;;;41.55;37.47;;;;;;;3.06;76.30;94943.44;5035014;28;20508;-70
2024/01/01 02:09:08;;;;;;;38.13;34.45;;;;;;;3.12;76.93;94935.94;5035214;28;20240;-70
2024/01/01 02:11:39;;;;;;;37.17;33.55;;;;;;;3.19;76.56;94954.59;5034533;28;20625;-70
2024/01/01 02:14:11;;;;;;;36.08;32.58;;;;;;;3.20;76.85;94946.13;5035710;28;20293;-70
2024/01/01 02:16:39;;;;;;;36.13;32.75;;;;;;;3.26;76.49;94942.13;5034779;28;20747;-70
2024/01/01 02:19:13;;;;;;;35.67;32.33;;;;;;;3.35;77.25;94934.84;5035633;28;20257;-70
2024/01/01 02:21:43;;;;;;;36.55;32.80;;;;;;;3.41;76.92;94934.69;5034990;28;20193;-70
2024/01/01 02:24:17;;;;;;;35.47;32.08;;;;;;;3.42;77.00;94928.97;5034411;28;20217;-70
2024/01/01 02:26:45;;;;;;;38.70;34.95;;;;;;;3.42;76.77;94936.34;5034428;28;20206;-70
2024/01/01 02:29:14;;;;;;;37.50;33.53;;;;;;;3.39;76.28;94940.47;5034182;28;20209;-70
2024/01/01 02:31:41;;;;;;;40.60;36.47;;;;;;;3.27;76.40;94932.88;5034298;28;20208;-70
2024/01/01 02:34:09;;;;;;;40.28;36.38;;;;;;;3.17;75.89;94945.94;5035099;28;20193;-70
2024/01/01 02:36:38;;;;;;;38.15;34.33;;;;;;;3.14;76.36;94937.25;5034603;28;20202;-70
2024/01/01 02:39:06;;;;;;;38.35;34.35;;;;;;;3.13;76.37;94940.28;5034998;28;20205;-70
2024/01/01 02:41:39;;;;;;;37.75;34.17;;;;;;;3.13;76.57;94932.91;5035051;28;20262;-70
2024/01/01 02:44:07;;;;;;;38.10;34.30;;;;;;;3.04;76.61;94929.31;5034201;28;20300;-70
2024/01/01 02:46:34;;;;;;;37.67;33.95;;;;;;;3.02;76.74;94922.56;5034707;28;20206;-70
2024/01/01 02:49:02;;;;;;;38.22;34.40;;;;;;;2.91;76.64;94932.91;5034091;28;20227;-70
2024/01/01 02:51:31;;;;;;;35.67;32.28;;;;;;;2.89;76.71;94927.75;5034291;28;20247;-70
2024/01/01 02:54:05;;;;;;;37.25;33.50;;;;;;;2.85;76.97;94928.69;5034001;28;20254;-70
2024/01/01 02:56:34;;;;;;;36.47;32.90;;;;;;;2.85;77.06;94925.94;5034667;28;20300;-71
2024/01/01 02:59:03;;;;;;;37.33;33.63;;;;;;;2.83;76.96;94923.53;5052795;28;20305;-70
2024/01/01 03:01:31;;;;;;;36.20;32.70;;;;;;;2.81;76.99;94916.78;5035072;28;20189;-70
2024/01/01 03:03:58;;;;;;;38.05;34.25;;;;;;;2.82;76.89;94910.22;5034918;28;20278;-71
2024/01/01 03:06:29;;;;;;;38.50;34.80;;;;;;;2.85;77.27;94906.88;5032542;28;20234;-71
2024/01/01 03:08:56;;;;;;;37.97;34.17;;;;;;;2.85;76.61;94909.59;5034137;28;20208;-71
2024/01/01 03:11:27;;;;;;;37.33;33.72;;;;;;;2.92;77.46;94898.28;5034422;28;20251;-71
2024/01/01 03:13:57;;;;;;;40.13;36.22;;;;;;;2.96;76.78;94900.09;5034302;28;20614;-71
2024/01/01 03:16:26;;;;;;;37.42;33.65;;;;;;;2.80;76.90;94901.56;5034159;28;20234;-71
2024/01/01 03:18:55;;;;;;;38.65;34.80;;;;;;;2.72;77.23;94897.63;5034555;28;20243;-71
2024/01/01 03:21:22;;;;;;;38.50;34.55;;;;;;;2.73;76.39;94899.25;5034256;28;20225;-70
2024/01/01 03:23:49;;;;;;;38.10;34.40;;;;;;;2.75;77.14;94891.56;5034723;28;20210;-70
2024/01/01 03:26:18;;;;;;;38.15;34.45;;;;;;;2.79;77.13;94895.28;5033781;28;20305;-70
2024/01/01 03:28:47;;;;;;;37.33;33.70;;;;;;;2.79;76.83;94881.66;5034750;28;20186;-70
2024/01/01 03:31:18;;;;;;;38.58;34.67;;;;;;;2.70;76.73;94886.25;5035914;28;20221;-71
2024/01/01 03:33:50;;;;;;;37.97;34.35;;;;;;;2.63;76.75;94878.50;5036030;28;20186;-70
2024/01/01 03:36:19;;;;;;;38.70;34.90;;;;;;;2.61;76.95;94878.03;5034220;28;20204;-70
2024/01/01 03:38:46;;;;;;;38.58;34.78;;;;;;;2.62;76.56;94870.66;5033457;28;20643;-70
2024/01/01 03:41:13;;;;;;;38.30;34.60;;;;;;;2.61;77.16;94869.03;5036582;28;20197;-70
2024/01/01 03:43:42;;;;;;;37.97;34.25;;;;;;;2.61;76.89;94863.56;5037294;28;20217;-70
2024/01/01 03:46:09;;;;;;;37.95;34.25;;;;;;;2.56;76.99;94877.31;5037348;28;20216;-70
2024/01/01 03:48:39;;;;;;;37.45;33.80;;;;;;;2.54;77.07;94871.34;5054557;28;20186;-70
2024/01/01 03:51:10;;;;;;;37.85;34.28;;;;;;;2.56;77.06;94874.59;5037007;28;20651;-70
2024/01/01 03:53:39;;;;;;;37.20;33.55;;;;;;;2.55;77.01;94870.28;5036873;28;20266;-70
2024/01/01 03:56:08;;;;;;;38.83;35.08;;;;;;;2.48;77.21;94865.25;5037181;28;20186;-70
2024/01/01 03:58:37;;;;;;;37.83;34.25;;;;;;;2.44;77.11;94861.53;5037583;28;20194;-70
2024/01/01 04:01:11;;;;;;;37.53;33.95;;;;;;;2.41;76.78;94875.75;5037389;28;20198;-70
2024/01/01 04:03:40;;;;;;;37.25;33.75;;;;;;;2.51;77.30;94866.56;5037646;28;20216;-70
2024/01/01 04:06:11;;;;;;;37.80;34.10;;;;;;;2.56;77.66;94874.59;5037381;28;20201;-70
2024/01/01 04:08:38;;;;;;;36.95;33.33;;;;;;;2.61;77.74;94863.56;5037016;28;20202;-70
2024/01/01 04:11:08;;;;;;;37.05;33.47;;;;;;;2.64;77.75;94868.41;5036435;28;20255;-70
2024/01/01 04:13:35;;;;;;;46.53;42.28;;;;;;;2.69;77.88;94870.19;5036584;28;20205;-70
2024/01/01 04:16:02;;;;;;;43.00;38.95;;;;;;;2.66;77.39;94866.19;5036932;28;20236;-70
2024/01/01 04:18:30;;;;;;;37.70;34.03;;;;;;;2.65;77.27;94867.28;5036426;28;20674;-70
2024/01/01 04:20:57;;;;;;;37.58;33.97;;;;;;;2.68;77.64;94883.03;5037085;28;20194;-70
2024/01/01 04:23:32;;;;;;;36.47;32.75;;;;;;;2.76;77.67;94884.19;5037004;28;20496;-70
2024/01/01 04:26:03;;;;;;;38.47;34.67;;;;;;;2.82;78.18;94893.88;5036739;28;20250;-70
2024/01/01 04:28:30;;;;;;;37.58;33.92;;;;;;;2.83;77.18;94892.75;5036952;28;20206;-70
2024/01/01 04:30:58;;;;;;;38.78;34.85;;;;;;;2.76;76.80;94882.31;5036435;28;20262;-70
2024/01/01 04:33:25;;;;;;;37.97;34.17;;;;;;;2.68;77.49;94880.28;5036207;28;20250;-70
2024/01/01 04:35:53;;;;;;;38.63;34.75;;;;;;;2.61;77.00;94890.81;5035972;28;20213;-70
2024/01/01 04:38:20;;;;;;;36.92;33.25;;;;;;;2.58;77.35;94889.53;5036668;28;20194;-70
2024/01/01 04:40:53;;;;;;;36.88;33.28;;;;;;;2.64;77.74;94877.38;5036280;28;20206;-70
2024/01/01 04:43:21;;;;;;;37.13;33.55;;;;;;;2.68;77.62;94874.06;5036397;28;20517;-70
2024/01/01 04:45:48;;;;;;;36.95;33.28;;;;;;;2.65;77.17;94872.72;5036407;28;20274;-70
2024/01/01 04:48:18;;;;;;;36.33;32.72;;;;;;;2.65;78.19;94872.72;5035836;28;20194;-70
2024/01/01 04:50:45;;;;;;;37.38;33.63;;;;;;;2.62;77.16;94865.22;5035824;28;20244;-70
2024/01/01 04:53:12;;;;;;;37.38;33.78;;;;;;;2.52;77.58;94871.69;5035806;28;20197;-70
2024/01/01 04:55:41;;;;;;;37.53;33.85;;;;;;;2.49;77.66;94864.13;5036919;28;20198;-70
2024/01/01 04:58:11;;;;;;;38.45;34.58;;;;;;;2.40;77.43;94866.78;5036175;28;20202;-70
2024/01/01 05:00:40;;;;;;;37.20;33.63;;;;;;;2.41;77.67;94873.81;5035942;28;20250;-70
2024/01/01 05:03:12;;;;;;;39.80;35.90;;;;;;;2.42;77.75;94872.69;5035726;28;20270;-70
2024/01/01 05:05:40;;;;;;;41.78;37.42;;;;;;;2.44;77.70;94866.16;5035733;28;20221;-70
2024/01/01 05:08:09;;;;;;;39.53;35.55;;;;;;;2.48;77.55;94880.78;5048788;27;20297;-70
2024/01/01 05:10:38;;;;;;;40.75;36.65;;;;;;;2.52;77.83;94874.41;5053182;28;20194;-70
2024/01/01 05:13:07;;;;;;;39.92;35.75;;;;;;;2.51;77.90;94874.72;5053132;28;20197;-70
2024/01/01 05:15:40;;;;;;;40.05;36.00;;;;;;;2.48;77.83;94875.31;5052208;28;20202;-70
2024/01/01 05:18:10;;;;;;;41.25;37.10;;;;;;;2.35;77.50;94871.50;5052231;28;20198;-70
2024/01/01 05:20:37;;;;;;;42.50;38.45;;;;;;;2.32;77.72;94870.19;5051911;28;20194;-70
2024/01/01 05:23:04;;;;;;;41.13;37.17;;;;;;;2.30;77.92;94866.19;5052052;28;20694;-71
2024/01/01 05:25:31;;;;;;;39.67;35.78;;;;;;;2.28;78.12;94861.03;5052034;28;20299;-71
2024/01/01 05:28:01;;;;;;;41.20;37.05;;;;;;;2.34;78.52;94864.47;5052656;28;20259;-71
2024/01/01 05:30:31;;;;;;;40.53;36.17;;;;;;;2.38;77.91;94863.53;5052859;28;20254;-71
2024/01/01 05:33:00;;;;;;;39.08;35.17;;;;;;;2.38;77.92;94852.66;5052038;28;20198;-71
2024/01/01 05:35:27;;;;;;;39.33;35.58;;;;;;;2.35;77.68;94860.63;5052019;28;20633;-70
2024/01/01 05:37:56;;;;;;;42.95;38.67;;;;;;;2.29;77.44;94845.53;5052566;28;20254;-70
2024/01/01 05:40:23;;;;;;;42.55;38.45;;;;;;;2.16;77.38;94853.41;5052781;28;20178;-70
2024/01/01 05:42:50;;;;;;;43.65;39.40;;;;;;;2.13;78.22;94851.28;5052147;28;20198;-70
2024/01/01 05:45:21;;;;;;;42.63;38.65;;;;;;;2.16;77.82;94855.31;5051794;28;20278;-70
2024/01/01 05:47:48;;;;;;;44.17;39.85;;;;;;;2.12;77.70;94852.41;5051840;28;20194;-70
2024/01/01 05:50:19;;;;;;;44.42;40.05;;;;;;;2.06;77.63;94853.63;5051761;28;20250;-70
2024/01/01 05:52:50;;;;;;;42.42;38.42;;;;;;;2.11;78.05;94853.53;5052276;28;20190;-69
2024/01/01 05:55:18;;;;;;;43.70;39.53;;;;;;;2.06;77.92;94850.09;5052076;28;20225;-69
2024/01/01 05:57:49;;;;;;;41.15;36.88;;;;;;;2.01;78.11;94851.00;5051724;28;20202;-69
2024/01/01 06:00:18;;;;;;;41.42;37.40;;;;;;;2.08;78.28;94854.13;5052874;28;20193;-69
2024/01/01 06:02:46;;;;;;;39.00;35.15;;;;;;;2.19;79.05;94851.19;5050464;28;20206;-69
2024/01/01 06:05:14;;;;;;;40.38;36.50;;;;;;;2.29;79.11;94851.78;5052394;28;20633;-70
2024/01/01 06:07:44;;;;;;;41.53;37.60;;;;;;;2.36;79.75;94852.16;5128697;27;20627;-70
2024/01/01 06:10:11;;;;;;;43.47;39.20;;;;;;;2.41;79.38;94849.31;5160332;27;20186;-69
2024/01/01 06:12:39;;;;;;;40.55;36.47;;;;;;;2.47;79.46;94843.75;5160422;27;20563;-69
2024/01/01 06:15:10;;;;;;;40.17;36.28;;;;;;;2.54;79.49;94844.13;5160654;27;20658;-69
2024/01/01 06:17:37;;;;;;;67.30;48.92;;;;;;;2.47;78.72;94849.19;5159389;27;20194;-69
2024/01/01 06:20:07;;;;;;;68.40;50.30;;;;;;;2.45;78.75;94851.44;5159970;27;20185;-69
2024/01/01 06:22:35;;;;;;;62.38;47.75;;;;;;;2.46;78.57;94851.13;5160086;27;20193;-69
2024/01/01 06:25:06;;;;;;;49.90;44.60;;;;;;;2.44;78.52;94847.91;5159155;27;20222;-69
2024/01/01 06:27:35;;;;;;;49.30;44.17;;;;;;;2.35;78.19;94836.94;5159294;27;20223;-70
2024/01/01 06:30:02;;;;;;;63.38;57.08;;;;;;;2.34;78.50;94850.84;5177950;27;20201;-69
2024/01/01 06:32:30;;;;;;;78.40;70.68;;;;;;;2.29;78.92;94846.34;5178414;27;20184;-68
2024/01/01 06:34:57;;;;;;;75.22;67.65;;;;;;;2.31;78.91;94843.31;5159868;27;20304;-69
2024/01/01 06:37:27;;;;;;;81.97;73.68;;;;;;;2.30;78.86;94847.94;5160468;27;20185;-69
2024/01/01 06:39:54;;;;;;;81.50;73.22;;;;;;;2.30;78.99;94839.78;5159368;27;20639;-70
2024/01/01 06:42:23;;;;;;;80.32;72.07;;;;;;;2.25;78.98;94833.63;5159959;27;20190;-70
2024/01/01 06:44:50;;;;;;;86.63;78.00;;;;;;;2.26;79.29;94833.34;5160152;27;20234;-70
2024/01/01 06:47:18;;;;;;;99.63;88.88;;;;;;;2.32;79.45;94823.94;5159705;27;20643;-70
2024/01/01 06:49:46;;;;;;;86.43;77.50;;;;;;;2.42;79.30;94814.72;5159959;27;20246;-70
2024/01/01 06:52:14;;;;;;;84.88;76.72;;;;;;;2.45;79.64;94816.84;5159591;27;20214;-70
2024/01/01 06:54:42;;;;;;;88.35;79.38;;;;;;;2.49;79.76;94828.72;5177989;27;20194;-70
2024/01/01 06:57:12;;;;;;;89.10;80.78;;;;;;;2.47;79.52;94838.31;5159404;27;20223;-70
2024/01/01 06:59:48;;;;;;;93.10;84.10;;;;;;;2.50;79.20;94843.16;5159489;27;20308;-71
2024/01/01 07:02:18;;;;;;;94.90;85.53;;;;;;;2.55;79.28;94837.59;5159545;27;20190;-70
2024/01/01 07:04:46;;;;;;;94.53;85.38;;;;;;;2.61;79.29;94839.91;5159853;27;20320;-70
2024/01/01 07:07:16;;;;;;;95.13;85.88;;;;;;;2.69;79.11;94830.19;5127735;27;20272;-70
2024/01/01 07:09:46;;;;;;;90.43;82.10;;;;;;;2.77;79.03;94831.38;5117919;28;20209;-70
2024/01/01 07:12:27;;;;;;;96.30;87.05;;;;;;;2.88;79.40;94830.00;5118002;28;20202;-70
2024/01/01 07:15:00;;;;;;;91.32;82.68;;;;;;;3.00;79.17;94823.97;5121522;27;20210;-71
2024/01/01 07:17:29;;;;;;;93.13;84.38;;;;;;;3.09;78.93;94836.56;5122092;27;20249;-69
2024/01/01 07:20:00;;;;;;;117.97;106.35;;;;;;;3.20;78.69;94828.13;5122203;27;20694;-71
2024/01/01 07:22:29;;;;;;;128.52;115.40;;;;;;;3.24;78.91;94823.66;5123418;27;20205;-71
2024/01/01 07:25:03;;;;;;;124.20;111.90;;;;;;;3.44;79.73;94823.09;5123213;27;20219;-71
2024/01/01 07:27:34;;;;;;;124.00;111.97;;;;;;;3.61;79.22;94823.19;5122410;27;20218;-71
2024/01/01 07:30:08;;;;;;;125.72;113.22;;;;;;;3.72;78.91;94840.06;5121756;27;20630;-71
2024/01/01 07:32:40;;;;;;;123.32;111.25;;;;;;;3.74;78.45;94837.84;5139413;27;20269;-70
2024/01/01 07:35:09;;;;;;;123.15;111.32;;;;;;;3.81;78.09;94834.63;5121888;27;20241;-71
2024/01/01 07:37:36;;;;;;;123.32;111.63;;;;;;;3.90;78.09;94830.03;5121813;27;20195;-70
2024/01/01 07:40:07;;;;;;;128.57;116.05;;;;;;;3.99;77.92;94828.13;5140005;27;20179;-71
2024/01/01 07:42:36;;;;;;;127.43;115.13;;;;;;;4.09;77.76;94827.03;5121473;27;20203;-71
2024/01/01 07:45:11;;;;;;;119.57;108.18;;;;;;;4.22;77.36;94822.56;5122280;27;20218;-70
2024/01/01 07:47:39;;;;;;;112.63;101.97;;;;;;;4.41;77.24;94831.25;5121798;27;20302;-71
2024/01/01 07:50:12;;;;;;;101.32;91.55;;;;;;;4.61;76.68;94848.13;5120828;27;20199;-69
2024/01/01 07:52:39;;;;;;;93.45;84.30;;;;;;;4.67;76.32;94846.88;5121600;27;20199;-71
2024/01/01 07:55:11;;;;;;;97.22;87.85;;;;;;;4.69;76.53;94852.81;5121402;27;20261;-70
2024/01/01 07:57:39;;;;;;;103.93;93.88;;;;;;;4.68;76.31;94852.00;5121218;27;20191;-69
2024/01/01 08:00:15;;;;;;;96.93;87.78;;;;;;;4.73;75.95;94853.78;5121656;27;20199;-69
2024/01/01 08:02:46;;;;;;;86.13;77.82;;;;;;;4.76;75.85;94853.94;5120418;27;20207;-69
2024/01/01 08:05:13;;;;;;;80.65;73.28;;;;;;;4.79;75.77;94857.94;5120573;27;20219;-69
2024/01/01 08:07:47;;;;;;;67.60;61.15;;;;;;;4.80;75.59;94846.72;5066036;27;20322;-68
2024/01/01 08:10:15;;;;;;;70.25;63.22;;;;;;;4.83;75.21;94854.28;5033084;28;20235;-69
2024/01/01 08:12:43;;;;;;;95.45;86.38;;;;;;;4.87;74.77;94850.91;5033586;28;20202;-69
2024/01/01 08:15:14;;;;;;;95.22;86.32;;;;;;;4.85;74.71;94855.88;5033006;28;20223;-69
2024/01/01 08:17:46;;;;;;;93.97;84.72;;;;;;;4.86;74.84;94862.94;5033442;28;20214;-69
2024/01/01 08:20:14;;;;;;;93.13;84.07;;;;;;;4.83;74.77;94850.75;5033236;28;20290;-68
2024/01/01 08:22:41;;;;;;;95.35;86.32;;;;;;;4.78;74.88;94850.88;5033789;28;20271;-68
2024/01/01 08:25:12;;;;;;;91.45;82.88;;;;;;;4.72;74.66;94849.44;5032546;28;20263;-67
2024/01/01 08:27:40;;;;;;;94.72;85.65;;;;;;;4.71;75.20;94850.56;5033430;28;20214;-67
2024/01/01 08:30:14;;;;;;;90.72;82.07;;;;;;;4.70;75.46;94840.75;5033409;28;20233;-69
2024/01/01 08:32:44;;;;;;;87.88;79.47;;;;;;;4.71;75.38;94859.56;5033332;28;20198;-69
2024/01/01 08:35:13;;;;;;;89.70;81.22;;;;;;;4.74;75.24;94867.13;5033645;28;20204;-69
2024/01/01 08:37:40;;;;;;;86.15;78.05;;;;;;;4.75;75.46;94863.25;5032799;28;20226;-68
2024/01/01 08:40:11;;;;;;;90.25;81.50;;;;;;;4.75;75.40;94857.78;5032854;28;20594;-69
2024/01/01 08:42:38;;;;;;;89.18;80.88;;;;;;;4.78;75.26;94870.81;5033151;28;20213;-69
2024/01/01 08:45:09;;;;;;;88.40;80.10;;;;;;;4.81;75.20;94872.91;5032887;27;20233;-68
2024/01/01 08:47:37;;;;;;;92.43;83.90;;;;;;;4.81;75.04;94863.91;5032515;28;20206;-69
2024/01/01 08:50:06;;;;;;;95.25;86.10;;;;;;;4.82;74.84;94871.78;5032914;28;20210;-69
2024/01/01 08:52:36;;;;;;;91.70;83.13;;;;;;;4.88;75.11;94863.44;5017085;28;20226;-68
2024/01/01 08:55:08;;;;;;;91.28;82.53;;;;;;;4.93;74.89;94866.00;5032339;28;20194;-69
2024/01/01 08:57:36;;;;;;;90.72;82.05;;;;;;;4.95;74.43;94861.81;5032703;28;20199;-72
2024/01/01 09:00:05;;;;;;;80.72;72.00;;;;;;;4.94;74.31;94848.47;5033066;28;20218;-70
2024/01/01 09:02:32;;;;;;;80.82;72.43;;;;;;;4.93;74.26;94852.31;5033946;28;20202;-71
2024/01/01 09:04:59;;;;;;;86.07;76.90;;;;;;;4.97;74.44;94820.50;5032767;28;20202;-71
2024/01/01 09:07:27;;;;;;;83.75;74.85;;;;;;;4.99;74.58;94840.13;5106681;27;20287;-72
2024/01/01 09:09:54;;;;;;;81.43;72.95;;;;;;;5.04;73.89;94815.34;5157328;27;20235;-67
2024/01/01 09:12:21;;;;;;;77.30;68.97;;;;;;;5.12;74.12;94825.47;5160408;27;20182;-68
2024/01/01 09:14:48;;;;;;;76.40;68.40;;;;;;;5.22;74.16;94816.91;5161290;27;20245;-70
2024/01/01 09:17:15;;;;;;;75.55;67.93;;;;;;;5.35;74.28;94823.34;5161468;27;20194;-70
2024/01/01 09:19:44;;;;;;;74.93;67.15;;;;;;;5.46;74.15;94821.84;5160569;27;20232;-70
2024/01/01 09:22:11;;;;;;;75.68;67.75;;;;;;;5.48;73.82;94816.03;5161117;27;20201;-69
2024/01/01 09:24:41;;;;;;;74.57;66.80;;;;;;;5.50;73.74;94811.06;5160802;27;20198;-69
2024/01/01 09:27:08;;;;;;;76.40;68.28;;;;;;;5.56;73.57;94820.69;5160134;27;20221;-69
2024/01/01 09:29:35;;;;;;;87.57;78.30;;;;;;;5.62;73.31;94807.63;5179070;27;20234;-69
2024/01/01 09:32:05;;;;;;;87.35;77.93;;;;;;;5.55;73.46;94802.66;5160214;27;20242;-69
2024/01/01 09:34:32;;;;;;;68.05;60.95;;;;;;;5.54;73.12;94801.06;5160302;27;20205;-70
2024/01/01 09:37:00;;;;;;;72.13;65.22;;;;;;;5.57;73.01;94786.72;5159304;27;20190;-70
2024/01/01 09:39:28;;;;;;;67.50;60.92;;;;;;;5.73;73.70;94792.44;5160294;27;20234;-70
2024/01/01 09:41:56;;;;;;;66.15;59.45;;;;;;;5.87;73.98;94784.03;5159963;27;20226;-71
2024/01/01 09:44:26;;;;;;;62.45;56.22;;;;;;;5.91;73.65;94806.88;5159917;27;20190;-71
2024/01/01 09:46:54;;;;;;;57.55;51.88;;;;;;;5.93;74.25;94808.19;5160291;27;20285;-70
2024/01/01 09:49:21;;;;;;;57.97;52.25;;;;;;;5.92;73.84;94794.78;5160370;27;20215;-70
2024/01/01 09:51:49;;;;;;;56.03;50.58;;;;;;;5.93;73.98;94805.44;5159715;27;20648;-70
2024/01/01 09:54:16;;;;;;;57.05;51.55;;;;;;;5.92;73.74;94806.59;5159862;27;20201;-70
2024/01/01 09:56:44;;;;;;;54.35;49.15;;;;;;;5.95;73.53;94797.69;5160457;27;20218;-71
2024/01/01 09:59:13;;;;;;;53.42;48.38;;;;;;;5.99;73.96;94800.56;5159673;27;20197;-70
2024/01/01 10:01:41;;;;;;;52.78;47.67;;;;;;;5.98;73.97;94807.19;5159574;27;20324;-70
2024/01/01 10:04:09;;;;;;;53.85;48.58;;;;;;;6.02;73.90;94784.28;5178187;27;20209;-70
2024/01/01 10:06:36;;;;;;;51.05;46.20;;;;;;;6.08;74.18;94779.44;5159863;27;20328;-70
2024/01/01 10:09:08;;;;;;;51.33;46.13;;;;;;;6.15;74.87;94778.91;5160187;27;20189;-72
2024/01/01 10:11:38;;;;;;;53.03;47.90;;;;;;;6.25;74.76;94764.84;5160518;27;20189;-72
2024/01/01 10:14:06;;;;;;;49.10;44.40;;;;;;;6.31;74.97;94749.78;5159910;27;20228;-70
2024/01/01 10:16:35;;;;;;;52.72;47.83;;;;;;;6.36;74.72;94757.03;5159594;27;20414;-70
2024/01/01 10:19:04;;;;;;;50.28;45.40;;;;;;;6.40;74.18;94742.31;5159907;27;20629;-69
2024/01/01 10:21:32;;;;;;;48.70;44.00;;;;;;;6.45;74.00;94733.88;5159819;27;20189;-69
2024/01/01 10:24:00;;;;;;;50.72;45.78;;;;;;;6.55;73.80;94735.44;5159824;27;20196;-68
2024/01/01 10:26:26;;;;;;;50.20;45.22;;;;;;;6.61;73.98;94727.78;5159826;27;20628;-68
2024/01/01 10:28:53;;;;;;;48.28;43.65;;;;;;;6.70;73.29;94723.84;5160222;27;20201;-68
2024/01/01 10:31:21;;;;;;;47.75;43.17;;;;;;;6.81;73.90;94721.50;5159398;27;20254;-68
2024/01/01 10:33:51;;;;;;;48.95;43.92;;;;;;;6.86;73.84;94731.44;5159818;27;20193;-69
2024/01/01 10:36:19;;;;;;;50.78;45.78;;;;;;;6.89;73.11;94736.25;5159565;27;20185;-68
2024/01/01 10:38:48;;;;;;;47.28;42.67;;;;;;;6.90;72.80;94722.22;5159874;27;20494;-69
2024/01/01 10:41:17;;;;;;;43.78;39.55;;;;;;;6.91;72.69;94725.75;5159142;27;20217;-68
2024/01/01 10:43:44;;;;;;;43.63;39.42;;;;;;;6.91;72.54;94725.75;5159714;27;20189;-70
2024/01/01 10:46:13;;;;;;;45.28;40.88;;;;;;;6.90;72.62;94735.09;5159812;27;20213;-72
2024/01/01 10:48:42;;;;;;;44.70;40.38;;;;;;;6.90;72.60;94713.16;5160838;27;20312;-70
2024/01/01 10:51:29;;;;;;;43.05;38.90;;;;;;;6.91;72.13;94707.38;5163367;27;20295;-70
2024/01/01 10:54:23;;;;;;;44.75;40.33;;;;;;;6.96;71.91;94709.09;5181817;27;20182;-69
2024/01/01 10:57:02;;;;;;;42.35;38.10;;;;;;;6.99;71.86;94706.47;5163637;27;20217;-70
2024/01/01 10:59:37;;;;;;;42.90;38.80;;;;;;;7.05;72.02;94707.06;5163428;27;20576;-69
2024/01/01 11:02:05;;;;;;;42.88;38.53;;;;;;;7.07;71.72;94704.75;5163546;27;20205;-70
2024/01/01 11:04:31;;;;;;;39.40;35.72;;;;;;;7.10;71.33;94706.84;5162998;27;20223;-70
2024/01/01 11:07:02;;;;;;;37.25;33.55;;;;;;;7.14;71.60;94702.28;5148831;27;20223;-70
2024/01/01 11:09:41;;;;;;;36.40;33.03;;;;;;;7.22;71.74;94690.38;5139683;27;20203;-70
2024/01/01 11:12:10;;;;;;;33.28;30.02;;;;;;;7.34;71.55;94689.63;5138814;27;20201;-70
2024/01/01 11:14:41;;;;;;;29.02;26.13;;;;;;;7.52;71.49;94683.94;5138679;27;20203;-70
2024/01/01 11:17:12;;;;;;;31.63;28.63;;;;;;;7.83;72.11;94684.13;5138478;27;20207;-69
2024/01/01 11:19:41;;;;;;;34.33;30.98;;;;;;;8.15;72.41;94681.56;5138868;27;20552;-70
2024/01/01 11:22:39;;;;;;;34.38;31.05;;;;;;;8.52;72.17;94673.25;5139064;27;20213;-73
2024/01/01 11:25:07;;;;;;;38.67;34.58;;;;;;;8.76;71.17;94667.66;5139458;27;20618;-72
2024/01/01 11:27:37;;;;;;;45.08;40.65;;;;;;;8.94;70.86;94673.63;5138206;27;20215;-72
2024/01/01 11:30:06;;;;;;;42.33;37.95;;;;;;;9.15;69.40;94665.97;5138843;27;20191;-73
2024/01/01 11:32:36;;;;;;;38.83;35.03;;;;;;;9.48;68.55;94664.81;5139010;27;20195;-73